• Join FlightAware (Why Join?)
  • Login
  • US Flag 
12:42AM EST


 

Airport Tracker/Info


-or-


 

Live Flight TrackerFlight Track Log ✈ UAL4462 ✈ 02-Jan-2014 ✈ CYXE - KDEN

Flight Track Log - Related Links

Times and Time Zones

All times are in EST time to prevent confusion due to time zone crossing. See the UAL4462 flight status page for this flight to view local times or setup timezone preferences in your user account.

Time Position Orientation Groundspeed Altitude Reporting Facility
EST Latitude Longitude Course Direction KTS MPH feet Rate Location/Type
09:02AM 52.1833 -106.8167 200° South 180 207 3,400  Level Winnipeg Center
09:03AM 52.1500 -106.9000 237° Southwest 210 242 5,800 2,200 Climbing Winnipeg Center
09:04AM 52.1000 -106.9333 202° Southwest 260 299 7,800 2,150 Climbing Winnipeg Center
09:05AM 52.0333 -106.9500 189° South 280 322 10,100 2,050 Climbing Winnipeg Center
09:06AM 51.6270 -106.5880 197° South  Level Estimated
09:06AM 51.9500 -106.9833 194° South 300 345 11,900  Level Winnipeg Center
09:07AM 51.5013 -106.5626 178° South  Level Estimated
09:07AM 51.8667 -107.0167 194° South 340 391 13,200  Level Winnipeg Center
09:08AM 51.3821 -106.6315 200° South  Level FlightAware Approximate
09:08AM 51.7500 -107.0667 195° South 370 426 14,500  Level Winnipeg Center
09:09AM 51.6500 -107.1333 202° Southwest 390 449 15,900 1,450 Climbing Winnipeg Center
09:10AM 51.5667 -107.1667 194° South 390 449 17,400 1,450 Climbing Winnipeg Center
09:11AM 51.4333 -107.2167 193° South 390 449 18,800 1,400 Climbing Winnipeg Center
09:12AM 51.3333 -107.2500 192° South 400 460 20,200 1,450 Climbing Winnipeg Center
09:13AM 51.2167 -107.2500 180° South 410 472 21,700 1,400 Climbing Winnipeg Center
09:14AM 51.1000 -107.2500 180° South 420 483 23,000 1,150 Climbing Winnipeg Center
09:15AM 51.0000 -107.2500 180° South 420 483 24,000 500 Climbing Winnipeg Center
09:16AM 50.8667 -107.2500 180° South 440 506 24,000  Level Winnipeg Center
09:17AM 50.7333 -107.2500 180° South 470 541 24,000  Level Winnipeg Center
09:18AM 50.6000 -107.2500 180° South 470 541 24,000  Level Winnipeg Center
09:19AM 50.4500 -107.2333 176° South 480 552 24,000  Level Winnipeg Center
09:20AM 50.3167 -107.2333 180° South 480 552 24,000  Level Winnipeg Center
09:21AM 50.1833 -107.2333 180° South 490 564 24,000  Level Winnipeg Center
09:22AM 50.0500 -107.2333 180° South 480 552 24,000  Level Winnipeg Center
09:23AM 49.9333 -107.2333 180° South 480 552 24,000  Level Winnipeg Center
09:24AM 49.7833 -107.2167 176° South 480 552 24,000  Level Winnipeg Center
09:25AM 49.6667 -107.2167 180° South 480 552 24,000  Level Winnipeg Center
09:26AM 49.5167 -107.2167 180° South 480 552 24,000  Level Winnipeg Center
09:27AM 49.4000 -107.1833 169° South 480 552 24,000  Level Winnipeg Center
09:28AM 49.2667 -107.1833 180° South 470 541 24,000  Level Winnipeg Center
09:29AM 49.1333 -107.1833 180° South 480 552 24,000  Level Winnipeg Center
09:30AM 49.0000 -107.1833 180° South 480 552 24,000  Level Winnipeg Center
09:31AM 48.8667 -107.1833 180° South 480 552 24,000  Level Winnipeg Center
09:32AM 48.7592 -107.1600 172° South 476 548 24,000  Level Salt Lake Center
09:33AM 48.6008 -107.1569 179° South 476 548 24,000  Level Salt Lake Center
09:34AM 48.4694 -107.1531 179° South 475 547 24,000  Level Salt Lake Center
09:35AM 48.3369 -107.1486 179° South 476 548 24,000  Level Salt Lake Center
09:36AM 48.2058 -107.1464 179° South 475 547 24,000  Level Salt Lake Center
09:37AM 48.0731 -107.1414 179° South 477 549 24,000  Level Salt Lake Center
09:38AM 47.9400 -107.1386 179° South 478 550 24,000  Level Salt Lake Center
09:40AM 47.8114 -107.1350 179° South 472 543 24,000  Level Salt Lake Center
09:41AM 47.6800 -107.1319 179° South 473 544 24,000  Level Salt Lake Center
09:42AM 47.5472 -107.1281 179° South 477 549 24,000  Level Salt Lake Center
09:43AM 47.4150 -107.1253 179° South 477 549 24,000  Level Salt Lake Center
09:44AM 47.2575 -107.1206 179° South 474 545 24,000  Level Salt Lake Center
09:45AM 47.1250 -107.1178 179° South 476 548 24,000  Level Salt Lake Center
09:46AM 46.9936 -107.1147 179° South 475 547 24,000  Level Salt Lake Center
09:47AM 46.8722 -107.1122 179° South 475 547 24,000  Level Salt Lake Center
09:48AM 46.7417 -107.1103 179° South 472 543 24,000  Level Salt Lake Center
09:49AM 46.5825 -107.1036 178° South 476 548 24,000  Level Salt Lake Center
09:50AM 46.4519 -107.1017 179° South 472 543 24,000  Level Salt Lake Center
09:51AM 46.3200 -107.0981 179° South 474 545 24,000  Level Salt Lake Center
09:52AM 46.1883 -107.0953 179° South 474 545 24,000  Level Salt Lake Center
09:53AM 46.0564 -107.0911 179° South 474 545 24,000  Level Salt Lake Center
09:54AM 45.9250 -107.0883 179° South 473 544 24,000  Level Salt Lake Center
09:55AM 45.7936 -107.0836 179° South 473 544 24,000  Level Salt Lake Center
09:56AM 45.6614 -107.0806 179° South 474 545 24,000  Level Salt Lake Center
09:57AM 45.5294 -107.0767 179° South 474 545 24,000  Level Salt Lake Center
09:58AM 45.3725 -107.0706 178° South 471 542 24,000  Level Salt Lake Center
09:59AM 45.2414 -107.0678 179° South 470 541 24,000  Level Salt Lake Center
10:00AM 45.1111 -107.0667 180° South 468 539 24,000  Level Salt Lake Center
10:01AM 44.9797 -107.0625 179° South 469 540 24,000  Level Salt Lake Center
10:02AM 44.8478 -107.0583 179° South 471 542 24,000  Level Salt Lake Center
10:03AM 44.7172 -107.0283 171° South 475 547 24,000  Level Salt Lake Center
10:04AM 44.5864 -106.9950 170° South 475 547 24,000  Level Salt Lake Center
10:05AM 44.4556 -106.9628 170° South 476 548 24,000  Level Salt Lake Center
10:06AM 44.3253 -106.9303 170° South 475 547 24,000  Level Salt Lake Center
10:07AM 44.1942 -106.8992 170° South 477 549 24,000  Level Salt Lake Center
10:08AM 44.0383 -106.8597 170° South 475 547 24,000  Level Salt Lake Center
10:09AM 43.9086 -106.8308 171° South 479 551 24,000  Level Salt Lake Center
10:10AM 43.7836 -106.8008 170° South 479 551 24,000  Level Salt Lake Center
10:11AM 43.6414 -106.7619 169° South 469 540 24,000  Level Salt Lake Center
10:12AM 43.5169 -106.7322 170° South 473 544 24,000  Level Salt Lake Center
10:13AM 43.3944 -106.7022 170° South 469 540 24,000  Level Salt Lake Center
10:14AM 43.2481 -106.6667 170° South 477 549 24,000  Level Salt Lake Center
10:15AM 43.1228 -106.6372 170° South 478 550 24,000  Level Salt Lake Center
10:16AM 42.9789 -106.6022 170° South 474 545 24,000  Level Salt Lake Center
10:17AM 42.8317 -106.5656 170° South 480 552 24,000  Level Denver Center
10:19AM 42.7039 -106.5358 170° South 485 558 24,000  Level Denver Center
10:20AM 42.5553 -106.5000 170° South 488 562 24,000  Level Denver Center
10:21AM 42.4272 -106.4692 170° South 488 562 24,000  Level Denver Center
10:22AM 42.2781 -106.4347 170° South 487 560 24,000  Level Denver Center
10:23AM 42.1506 -106.4053 170° South 487 560 24,000  Level Denver Center
10:24AM 42.0006 -106.3700 170° South 490 564 24,000  Level Denver Center
10:25AM 41.8736 -106.3406 170° South 488 562 24,000  Level Denver Center
10:26AM 41.7236 -106.3061 170° South 489 563 24,000  Level Denver Center
10:27AM 41.5953 -106.2750 170° South 490 564 24,000  Level Denver Center
10:28AM 41.4678 -106.2456 170° South 488 562 24,000  Level Denver Center
10:29AM 41.3231 -106.1867 163° South 487 560 24,000  Level Denver Center
10:30AM 41.1939 -106.1764 177° South 494 568 24,000  Level Denver Center
10:31AM 41.0736 -106.0747 147° Southeast 479 551 24,000  Level Denver Center
10:32AM 40.9775 -105.9394 133° Southeast 487 560 24,000  Level Denver Center
10:33AM 40.8825 -105.8119 135° Southeast 487 560 24,000 -435 Level Denver Center
10:34AM 40.7889 -105.6886 135° Southeast 480 552 23,100 -1,210 Descending Denver Center
10:35AM 40.6992 -105.5669 134° Southeast 467 537 21,500 -1,548 Descending Denver Center
10:36AM 40.6158 -105.4544 134° Southeast 437 503 19,900 -1,597 Descending Denver Center
10:37AM 40.5392 -105.3225 127° Southeast 383 441 18,200 -1,403 Descending Denver Center
10:38AM 40.4853 -105.2150 123° Southeast 361 415 17,000 -1,355 Descending Denver Center
10:39AM 40.4539 -105.0939 109° East 340 391 15,400 -1,161 Descending Denver Center
10:40AM 40.4239 -104.9939 111° Southeast 300 345 14,600 -864 Descending Denver Center
10:41AM 40.3878 -104.8883 114° Southeast 294 338 13,600 -1,152 Descending Denver Center
10:42AM 40.3536 -104.7914 115° Southeast 293 337 12,200 -1,403 Descending Denver Center
10:43AM 40.3056 -104.7042 126° Southeast 285 328 10,700 -1,452 Descending Denver Center
10:44AM 40.2322 -104.6833 168° South 272 313 9,200 -1,403 Descending Denver Center
10:45AM 40.1558 -104.6836 180° South 258 297 7,800 -1,016 Descending Denver Center
10:46AM 40.0900 -104.6847 181° South 239 275 7,100 -387 Descending Denver Center
10:47AM 40.0267 -104.6850 180° South 229 264 7,000 -194 Descending Denver Center
10:48AM 39.9622 -104.6861 181° South 219 252 6,700 -576 Descending Denver Center
10:49AM 39.9183 -104.6867 181° South 157 181 5,800 -624 Descending Denver Center
10:51AM 39.8814 -104.6864 180° South 129 148 5,400 -387 Descending Denver Center